sensor_id;sensor_type;location;lat;lon;timestamp;P1;durP1;ratioP1;P2;durP2;ratioP2
23682;SDS011;24897;53.514;10.482;2023-09-08T00:01:35;31.00;;;28.03;;
23682;SDS011;24897;53.514;10.482;2023-09-08T00:04:19;30.10;;;27.60;;
23682;SDS011;24897;53.514;10.482;2023-09-08T00:07:04;31.37;;;28.67;;
23682;SDS011;24897;53.514;10.482;2023-09-08T00:09:48;32.53;;;29.73;;
23682;SDS011;24897;53.514;10.482;2023-09-08T00:12:32;33.17;;;30.47;;
23682;SDS011;24897;53.514;10.482;2023-09-08T00:15:16;33.73;;;30.83;;
23682;SDS011;24897;53.514;10.482;2023-09-08T00:18:01;33.93;;;31.00;;
23682;SDS011;24897;53.514;10.482;2023-09-08T00:20:45;33.13;;;30.20;;
23682;SDS011;24897;53.514;10.482;2023-09-08T00:23:29;33.33;;;30.53;;
23682;SDS011;24897;53.514;10.482;2023-09-08T00:26:13;34.17;;;31.30;;
23682;SDS011;24897;53.514;10.482;2023-09-08T00:28:57;34.90;;;31.90;;
23682;SDS011;24897;53.514;10.482;2023-09-08T00:31:41;34.50;;;31.60;;
23682;SDS011;24897;53.514;10.482;2023-09-08T00:34:26;36.07;;;32.97;;
23682;SDS011;24897;53.514;10.482;2023-09-08T00:37:10;35.43;;;32.20;;
23682;SDS011;24897;53.514;10.482;2023-09-08T00:39:54;36.13;;;33.13;;
23682;SDS011;24897;53.514;10.482;2023-09-08T00:42:38;36.73;;;33.63;;
23682;SDS011;24897;53.514;10.482;2023-09-08T00:45:22;36.13;;;33.03;;
23682;SDS011;24897;53.514;10.482;2023-09-08T00:48:07;37.10;;;33.70;;
23682;SDS011;24897;53.514;10.482;2023-09-08T00:50:51;37.30;;;34.00;;
23682;SDS011;24897;53.514;10.482;2023-09-08T00:53:36;38.23;;;34.80;;
23682;SDS011;24897;53.514;10.482;2023-09-08T00:56:20;37.07;;;33.87;;
23682;SDS011;24897;53.514;10.482;2023-09-08T00:59:05;36.10;;;32.83;;
23682;SDS011;24897;53.514;10.482;2023-09-08T01:01:52;35.47;;;32.37;;
23682;SDS011;24897;53.514;10.482;2023-09-08T01:04:37;37.33;;;33.97;;
23682;SDS011;24897;53.514;10.482;2023-09-08T01:07:29;37.53;;;34.23;;
23682;SDS011;24897;53.514;10.482;2023-09-08T01:10:14;37.93;;;34.47;;
23682;SDS011;24897;53.514;10.482;2023-09-08T01:12:59;37.27;;;34.07;;
23682;SDS011;24897;53.514;10.482;2023-09-08T01:15:43;38.47;;;34.97;;
23682;SDS011;24897;53.514;10.482;2023-09-08T01:18:27;39.43;;;35.83;;
23682;SDS011;24897;53.514;10.482;2023-09-08T01:27:40;38.23;;;34.73;;
23682;SDS011;24897;53.514;10.482;2023-09-08T01:30:29;38.00;;;34.60;;
23682;SDS011;24897;53.514;10.482;2023-09-08T01:33:17;38.07;;;34.63;;
23682;SDS011;24897;53.514;10.482;2023-09-08T01:36:02;39.27;;;35.67;;
23682;SDS011;24897;53.514;10.482;2023-09-08T01:38:47;38.80;;;34.97;;
23682;SDS011;24897;53.514;10.482;2023-09-08T01:41:31;37.70;;;34.03;;
23682;SDS011;24897;53.514;10.482;2023-09-08T01:44:15;36.97;;;33.63;;
23682;SDS011;24897;53.514;10.482;2023-09-08T01:46:59;37.70;;;34.23;;
23682;SDS011;24897;53.514;10.482;2023-09-08T01:49:43;37.73;;;34.10;;
23682;SDS011;24897;53.514;10.482;2023-09-08T01:52:28;36.67;;;33.33;;
23682;SDS011;24897;53.514;10.482;2023-09-08T01:55:12;37.40;;;33.90;;
23682;SDS011;24897;53.514;10.482;2023-09-08T01:57:56;36.43;;;33.20;;
23682;SDS011;24897;53.514;10.482;2023-09-08T02:00:40;35.50;;;32.10;;
23682;SDS011;24897;53.514;10.482;2023-09-08T02:03:24;36.27;;;32.97;;
23682;SDS011;24897;53.514;10.482;2023-09-08T02:06:08;35.63;;;32.43;;
23682;SDS011;24897;53.514;10.482;2023-09-08T02:08:52;35.17;;;32.07;;
23682;SDS011;24897;53.514;10.482;2023-09-08T02:11:36;35.03;;;31.73;;
23682;SDS011;24897;53.514;10.482;2023-09-08T02:14:20;35.97;;;32.77;;
23682;SDS011;24897;53.514;10.482;2023-09-08T02:17:04;37.07;;;33.67;;
23682;SDS011;24897;53.514;10.482;2023-09-08T02:19:49;36.60;;;33.10;;
23682;SDS011;24897;53.514;10.482;2023-09-08T02:22:33;36.07;;;32.57;;
23682;SDS011;24897;53.514;10.482;2023-09-08T02:25:17;36.80;;;33.40;;
23682;SDS011;24897;53.514;10.482;2023-09-08T02:28:01;38.30;;;34.80;;
23682;SDS011;24897;53.514;10.482;2023-09-08T02:30:45;35.50;;;32.30;;
23682;SDS011;24897;53.514;10.482;2023-09-08T02:33:29;37.83;;;34.20;;
23682;SDS011;24897;53.514;10.482;2023-09-08T02:36:14;36.33;;;33.03;;
23682;SDS011;24897;53.514;10.482;2023-09-08T02:38:58;37.03;;;33.53;;
23682;SDS011;24897;53.514;10.482;2023-09-08T02:41:42;37.43;;;33.87;;
23682;SDS011;24897;53.514;10.482;2023-09-08T02:44:26;38.83;;;35.17;;
23682;SDS011;24897;53.514;10.482;2023-09-08T02:47:11;37.83;;;34.33;;
23682;SDS011;24897;53.514;10.482;2023-09-08T02:49:55;37.57;;;34.07;;
23682;SDS011;24897;53.514;10.482;2023-09-08T02:52:40;37.60;;;34.00;;
23682;SDS011;24897;53.514;10.482;2023-09-08T02:55:24;37.90;;;34.40;;
23682;SDS011;24897;53.514;10.482;2023-09-08T02:58:08;37.47;;;33.97;;
23682;SDS011;24897;53.514;10.482;2023-09-08T03:00:53;37.77;;;34.27;;
23682;SDS011;24897;53.514;10.482;2023-09-08T03:03:37;37.40;;;33.90;;
23682;SDS011;24897;53.514;10.482;2023-09-08T03:06:21;37.03;;;33.73;;
23682;SDS011;24897;53.514;10.482;2023-09-08T03:09:05;38.33;;;34.83;;
23682;SDS011;24897;53.514;10.482;2023-09-08T03:11:49;38.63;;;34.80;;
23682;SDS011;24897;53.514;10.482;2023-09-08T03:14:33;38.53;;;34.93;;
23682;SDS011;24897;53.514;10.482;2023-09-08T03:17:17;38.67;;;35.03;;
23682;SDS011;24897;53.514;10.482;2023-09-08T03:20:01;37.93;;;34.33;;
23682;SDS011;24897;53.514;10.482;2023-09-08T03:22:48;39.13;;;35.33;;
23682;SDS011;24897;53.514;10.482;2023-09-08T03:25:32;38.37;;;34.53;;
23682;SDS011;24897;53.514;10.482;2023-09-08T03:28:16;39.20;;;35.30;;
23682;SDS011;24897;53.514;10.482;2023-09-08T03:31:01;38.87;;;35.00;;
23682;SDS011;24897;53.514;10.482;2023-09-08T03:33:46;39.00;;;35.10;;
23682;SDS011;24897;53.514;10.482;2023-09-08T03:36:30;39.57;;;35.53;;
23682;SDS011;24897;53.514;10.482;2023-09-08T03:39:14;38.07;;;34.27;;
23682;SDS011;24897;53.514;10.482;2023-09-08T03:41:58;37.73;;;34.00;;
23682;SDS011;24897;53.514;10.482;2023-09-08T03:44:42;37.83;;;34.13;;
23682;SDS011;24897;53.514;10.482;2023-09-08T03:47:26;38.50;;;34.70;;
23682;SDS011;24897;53.514;10.482;2023-09-08T03:50:11;38.63;;;34.73;;
23682;SDS011;24897;53.514;10.482;2023-09-08T03:52:55;39.93;;;35.93;;
23682;SDS011;24897;53.514;10.482;2023-09-08T03:55:39;40.37;;;36.03;;
23682;SDS011;24897;53.514;10.482;2023-09-08T03:58:24;38.93;;;34.90;;
23682;SDS011;24897;53.514;10.482;2023-09-08T04:01:08;39.50;;;35.47;;
23682;SDS011;24897;53.514;10.482;2023-09-08T04:03:52;40.07;;;35.63;;
23682;SDS011;24897;53.514;10.482;2023-09-08T04:06:36;40.27;;;36.10;;
23682;SDS011;24897;53.514;10.482;2023-09-08T04:09:20;40.43;;;36.23;;
23682;SDS011;24897;53.514;10.482;2023-09-08T04:12:04;39.17;;;35.00;;
23682;SDS011;24897;53.514;10.482;2023-09-08T04:14:49;44.93;;;34.17;;
23682;SDS011;24897;53.514;10.482;2023-09-08T04:17:33;38.03;;;34.03;;
23682;SDS011;24897;53.514;10.482;2023-09-08T04:20:19;40.57;;;36.30;;
23682;SDS011;24897;53.514;10.482;2023-09-08T04:23:03;39.57;;;35.37;;
23682;SDS011;24897;53.514;10.482;2023-09-08T04:25:47;40.37;;;36.23;;
23682;SDS011;24897;53.514;10.482;2023-09-08T04:28:31;38.53;;;34.50;;
23682;SDS011;24897;53.514;10.482;2023-09-08T04:31:16;39.27;;;35.00;;
23682;SDS011;24897;53.514;10.482;2023-09-08T04:34:01;40.33;;;35.97;;
23682;SDS011;24897;53.514;10.482;2023-09-08T04:36:45;41.93;;;35.60;;
23682;SDS011;24897;53.514;10.482;2023-09-08T04:39:29;39.63;;;35.43;;
23682;SDS011;24897;53.514;10.482;2023-09-08T04:42:13;40.13;;;35.83;;
23682;SDS011;24897;53.514;10.482;2023-09-08T04:44:57;39.63;;;35.40;;
23682;SDS011;24897;53.514;10.482;2023-09-08T04:47:41;39.77;;;35.33;;
23682;SDS011;24897;53.514;10.482;2023-09-08T04:50:25;40.83;;;36.67;;
23682;SDS011;24897;53.514;10.482;2023-09-08T04:53:09;40.27;;;36.03;;
23682;SDS011;24897;53.514;10.482;2023-09-08T04:55:53;39.43;;;35.20;;
23682;SDS011;24897;53.514;10.482;2023-09-08T04:58:37;39.97;;;35.60;;
23682;SDS011;24897;53.514;10.482;2023-09-08T05:01:21;39.73;;;35.53;;
23682;SDS011;24897;53.514;10.482;2023-09-08T05:04:05;40.27;;;34.90;;
23682;SDS011;24897;53.514;10.482;2023-09-08T05:06:49;40.03;;;35.87;;
23682;SDS011;24897;53.514;10.482;2023-09-08T05:09:34;40.60;;;36.30;;
23682;SDS011;24897;53.514;10.482;2023-09-08T05:12:18;39.67;;;35.67;;
23682;SDS011;24897;53.514;10.482;2023-09-08T05:15:02;39.50;;;35.47;;
23682;SDS011;24897;53.514;10.482;2023-09-08T05:17:53;39.00;;;35.00;;
23682;SDS011;24897;53.514;10.482;2023-09-08T05:20:37;38.37;;;34.47;;
23682;SDS011;24897;53.514;10.482;2023-09-08T05:23:21;39.23;;;35.23;;
23682;SDS011;24897;53.514;10.482;2023-09-08T05:26:05;39.43;;;35.43;;
23682;SDS011;24897;53.514;10.482;2023-09-08T05:28:49;39.57;;;35.57;;
23682;SDS011;24897;53.514;10.482;2023-09-08T05:31:33;38.57;;;34.67;;
23682;SDS011;24897;53.514;10.482;2023-09-08T05:34:17;38.37;;;34.47;;
23682;SDS011;24897;53.514;10.482;2023-09-08T05:37:01;38.77;;;34.77;;
23682;SDS011;24897;53.514;10.482;2023-09-08T05:39:46;38.70;;;34.80;;
23682;SDS011;24897;53.514;10.482;2023-09-08T05:42:30;38.53;;;34.73;;
23682;SDS011;24897;53.514;10.482;2023-09-08T05:45:14;38.80;;;34.90;;
23682;SDS011;24897;53.514;10.482;2023-09-08T05:47:58;37.87;;;34.10;;
23682;SDS011;24897;53.514;10.482;2023-09-08T05:50:42;38.67;;;34.87;;
23682;SDS011;24897;53.514;10.482;2023-09-08T05:53:26;38.03;;;34.30;;
23682;SDS011;24897;53.514;10.482;2023-09-08T05:56:10;37.87;;;34.27;;
23682;SDS011;24897;53.514;10.482;2023-09-08T05:58:54;37.17;;;33.57;;
23682;SDS011;24897;53.514;10.482;2023-09-08T06:01:39;38.13;;;34.23;;
23682;SDS011;24897;53.514;10.482;2023-09-08T06:04:23;37.60;;;33.90;;
23682;SDS011;24897;53.514;10.482;2023-09-08T06:07:07;37.23;;;33.43;;
23682;SDS011;24897;53.514;10.482;2023-09-08T06:09:51;37.00;;;33.40;;
23682;SDS011;24897;53.514;10.482;2023-09-08T06:12:35;36.30;;;32.60;;
23682;SDS011;24897;53.514;10.482;2023-09-08T06:15:19;36.17;;;32.77;;
23682;SDS011;24897;53.514;10.482;2023-09-08T06:18:03;35.47;;;32.17;;
23682;SDS011;24897;53.514;10.482;2023-09-08T06:20:48;36.10;;;32.50;;
23682;SDS011;24897;53.514;10.482;2023-09-08T06:23:33;36.07;;;32.43;;
23682;SDS011;24897;53.514;10.482;2023-09-08T06:26:17;35.17;;;32.00;;
23682;SDS011;24897;53.514;10.482;2023-09-08T06:29:01;36.33;;;33.03;;
23682;SDS011;24897;53.514;10.482;2023-09-08T06:31:45;35.73;;;32.03;;
23682;SDS011;24897;53.514;10.482;2023-09-08T06:34:29;34.40;;;31.30;;
23682;SDS011;24897;53.514;10.482;2023-09-08T06:37:13;34.73;;;31.67;;
23682;SDS011;24897;53.514;10.482;2023-09-08T06:39:57;35.13;;;32.03;;
23682;SDS011;24897;53.514;10.482;2023-09-08T06:42:42;33.10;;;29.93;;
23682;SDS011;24897;53.514;10.482;2023-09-08T06:45:26;33.03;;;29.93;;
23682;SDS011;24897;53.514;10.482;2023-09-08T06:48:10;34.30;;;31.30;;
23682;SDS011;24897;53.514;10.482;2023-09-08T06:50:54;34.38;;;31.40;;
23682;SDS011;24897;53.514;10.482;2023-09-08T06:53:42;33.30;;;30.40;;
23682;SDS011;24897;53.514;10.482;2023-09-08T06:56:27;32.60;;;29.30;;
23682;SDS011;24897;53.514;10.482;2023-09-08T06:59:11;33.03;;;29.97;;
23682;SDS011;24897;53.514;10.482;2023-09-08T07:01:55;31.97;;;29.17;;
23682;SDS011;24897;53.514;10.482;2023-09-08T07:04:39;31.30;;;28.50;;
23682;SDS011;24897;53.514;10.482;2023-09-08T07:07:23;32.63;;;29.53;;
23682;SDS011;24897;53.514;10.482;2023-09-08T07:10:07;30.83;;;28.03;;
23682;SDS011;24897;53.514;10.482;2023-09-08T07:12:52;32.47;;;29.43;;
23682;SDS011;24897;53.514;10.482;2023-09-08T07:15:36;30.83;;;28.03;;
23682;SDS011;24897;53.514;10.482;2023-09-08T07:18:20;30.70;;;27.57;;
23682;SDS011;24897;53.514;10.482;2023-09-08T07:21:04;30.33;;;27.53;;
23682;SDS011;24897;53.514;10.482;2023-09-08T07:23:48;28.77;;;26.37;;
23682;SDS011;24897;53.514;10.482;2023-09-08T07:26:33;29.63;;;26.87;;
23682;SDS011;24897;53.514;10.482;2023-09-08T07:29:17;29.90;;;26.83;;
23682;SDS011;24897;53.514;10.482;2023-09-08T07:32:01;28.47;;;26.07;;
23682;SDS011;24897;53.514;10.482;2023-09-08T07:34:45;28.47;;;26.07;;
23682;SDS011;24897;53.514;10.482;2023-09-08T07:37:30;27.70;;;25.13;;
23682;SDS011;24897;53.514;10.482;2023-09-08T07:40:14;27.53;;;25.03;;
23682;SDS011;24897;53.514;10.482;2023-09-08T07:42:58;25.50;;;23.30;;
23682;SDS011;24897;53.514;10.482;2023-09-08T07:45:43;26.27;;;23.77;;
23682;SDS011;24897;53.514;10.482;2023-09-08T07:48:28;25.40;;;23.07;;
23682;SDS011;24897;53.514;10.482;2023-09-08T07:51:12;23.83;;;21.73;;
23682;SDS011;24897;53.514;10.482;2023-09-08T07:53:56;23.90;;;21.70;;
23682;SDS011;24897;53.514;10.482;2023-09-08T07:56:40;22.30;;;20.40;;
23682;SDS011;24897;53.514;10.482;2023-09-08T07:59:24;22.30;;;20.30;;
23682;SDS011;24897;53.514;10.482;2023-09-08T08:02:08;22.98;;;20.83;;
23682;SDS011;24897;53.514;10.482;2023-09-08T08:04:54;27.02;;;21.80;;
23682;SDS011;24897;53.514;10.482;2023-09-08T08:07:39;25.33;;;23.10;;
23682;SDS011;24897;53.514;10.482;2023-09-08T08:10:23;23.15;;;21.15;;
23682;SDS011;24897;53.514;10.482;2023-09-08T08:13:07;23.15;;;21.25;;
23682;SDS011;24897;53.514;10.482;2023-09-08T08:15:52;23.75;;;21.55;;
23682;SDS011;24897;53.514;10.482;2023-09-08T08:18:36;23.58;;;21.48;;
23682;SDS011;24897;53.514;10.482;2023-09-08T08:21:20;22.77;;;20.70;;
23682;SDS011;24897;53.514;10.482;2023-09-08T08:24:06;22.80;;;20.60;;
23682;SDS011;24897;53.514;10.482;2023-09-08T08:26:50;23.58;;;21.30;;
23682;SDS011;24897;53.514;10.482;2023-09-08T08:29:35;23.00;;;20.77;;
23682;SDS011;24897;53.514;10.482;2023-09-08T08:32:19;23.33;;;21.05;;
23682;SDS011;24897;53.514;10.482;2023-09-08T08:35:03;23.23;;;21.02;;
23682;SDS011;24897;53.514;10.482;2023-09-08T08:37:48;23.65;;;21.35;;
23682;SDS011;24897;53.514;10.482;2023-09-08T08:40:33;21.83;;;20.02;;
23682;SDS011;24897;53.514;10.482;2023-09-08T08:43:21;22.70;;;20.70;;
23682;SDS011;24897;53.514;10.482;2023-09-08T08:46:07;22.70;;;20.60;;
23682;SDS011;24897;53.514;10.482;2023-09-08T08:48:52;22.25;;;20.25;;
23682;SDS011;24897;53.514;10.482;2023-09-08T08:51:38;22.23;;;20.42;;
23682;SDS011;24897;53.514;10.482;2023-09-08T08:54:25;22.45;;;20.20;;
23682;SDS011;24897;53.514;10.482;2023-09-08T08:57:09;22.70;;;20.80;;
23682;SDS011;24897;53.514;10.482;2023-09-08T08:59:55;21.70;;;19.75;;
23682;SDS011;24897;53.514;10.482;2023-09-08T09:02:39;22.77;;;20.75;;
23682;SDS011;24897;53.514;10.482;2023-09-08T09:05:26;21.80;;;19.75;;
23682;SDS011;24897;53.514;10.482;2023-09-08T09:08:11;20.77;;;19.00;;
23682;SDS011;24897;53.514;10.482;2023-09-08T09:10:56;21.65;;;19.65;;
23682;SDS011;24897;53.514;10.482;2023-09-08T09:13:41;21.35;;;19.38;;
23682;SDS011;24897;53.514;10.482;2023-09-08T09:16:25;21.73;;;19.63;;
23682;SDS011;24897;53.514;10.482;2023-09-08T09:19:10;22.20;;;20.30;;
23682;SDS011;24897;53.514;10.482;2023-09-08T09:22:10;22.10;;;20.23;;
23682;SDS011;24897;53.514;10.482;2023-09-08T09:24:54;21.73;;;19.88;;
23682;SDS011;24897;53.514;10.482;2023-09-08T09:27:40;21.45;;;19.60;;
23682;SDS011;24897;53.514;10.482;2023-09-08T09:30:26;21.13;;;19.40;;
23682;SDS011;24897;53.514;10.482;2023-09-08T09:33:11;22.58;;;20.50;;
23682;SDS011;24897;53.514;10.482;2023-09-08T09:35:55;21.25;;;19.45;;
23682;SDS011;24897;53.514;10.482;2023-09-08T09:38:39;22.50;;;20.35;;
23682;SDS011;24897;53.514;10.482;2023-09-08T09:41:23;21.60;;;19.70;;
23682;SDS011;24897;53.514;10.482;2023-09-08T09:44:07;21.92;;;19.95;;
23682;SDS011;24897;53.514;10.482;2023-09-08T09:46:52;21.88;;;19.88;;
23682;SDS011;24897;53.514;10.482;2023-09-08T09:49:47;21.38;;;19.63;;
23682;SDS011;24897;53.514;10.482;2023-09-08T09:52:32;21.80;;;19.90;;
23682;SDS011;24897;53.514;10.482;2023-09-08T09:55:22;21.83;;;19.92;;
23682;SDS011;24897;53.514;10.482;2023-09-08T09:58:08;21.92;;;20.13;;
23682;SDS011;24897;53.514;10.482;2023-09-08T10:00:54;22.38;;;20.48;;
23682;SDS011;24897;53.514;10.482;2023-09-08T10:03:39;22.80;;;20.58;;
23682;SDS011;24897;53.514;10.482;2023-09-08T10:06:25;21.83;;;20.08;;
23682;SDS011;24897;53.514;10.482;2023-09-08T10:09:09;21.27;;;19.27;;
23682;SDS011;24897;53.514;10.482;2023-09-08T10:11:57;21.67;;;19.88;;
23682;SDS011;24897;53.514;10.482;2023-09-08T10:14:46;22.50;;;20.40;;
23682;SDS011;24897;53.514;10.482;2023-09-08T10:17:36;22.08;;;20.02;;
23682;SDS011;24897;53.514;10.482;2023-09-08T10:20:22;21.45;;;19.48;;
23682;SDS011;24897;53.514;10.482;2023-09-08T10:23:09;22.00;;;20.10;;
23682;SDS011;24897;53.514;10.482;2023-09-08T10:25:59;22.20;;;20.33;;
23682;SDS011;24897;53.514;10.482;2023-09-08T10:28:49;21.70;;;19.80;;
23682;SDS011;24897;53.514;10.482;2023-09-08T10:31:34;21.90;;;20.10;;
23682;SDS011;24897;53.514;10.482;2023-09-08T10:34:19;21.13;;;19.42;;
23682;SDS011;24897;53.514;10.482;2023-09-08T10:37:26;21.75;;;19.85;;
23682;SDS011;24897;53.514;10.482;2023-09-08T10:43:07;22.75;;;20.75;;
23682;SDS011;24897;53.514;10.482;2023-09-08T10:45:52;21.90;;;19.90;;
23682;SDS011;24897;53.514;10.482;2023-09-08T10:48:40;22.27;;;20.33;;
23682;SDS011;24897;53.514;10.482;2023-09-08T10:51:26;22.50;;;20.60;;
23682;SDS011;24897;53.514;10.482;2023-09-08T10:54:11;22.30;;;20.33;;
23682;SDS011;24897;53.514;10.482;2023-09-08T10:56:55;21.52;;;19.73;;
23682;SDS011;24897;53.514;10.482;2023-09-08T11:05:24;22.50;;;20.60;;
23682;SDS011;24897;53.514;10.482;2023-09-08T11:08:09;22.10;;;20.10;;
23682;SDS011;24897;53.514;10.482;2023-09-08T11:10:55;22.52;;;20.00;;
23682;SDS011;24897;53.514;10.482;2023-09-08T11:13:40;21.13;;;19.38;;
23682;SDS011;24897;53.514;10.482;2023-09-08T11:16:24;21.80;;;19.65;;
23682;SDS011;24897;53.514;10.482;2023-09-08T11:19:13;21.33;;;19.73;;
23682;SDS011;24897;53.514;10.482;2023-09-08T11:21:57;21.27;;;19.48;;
23682;SDS011;24897;53.514;10.482;2023-09-08T11:24:42;20.63;;;18.80;;
23682;SDS011;24897;53.514;10.482;2023-09-08T11:27:27;20.17;;;18.58;;
23682;SDS011;24897;53.514;10.482;2023-09-08T11:30:12;20.92;;;19.08;;
23682;SDS011;24897;53.514;10.482;2023-09-08T11:32:56;19.92;;;18.42;;
23682;SDS011;24897;53.514;10.482;2023-09-08T11:35:42;20.20;;;18.42;;
23682;SDS011;24897;53.514;10.482;2023-09-08T11:38:29;20.60;;;18.98;;
23682;SDS011;24897;53.514;10.482;2023-09-08T11:41:15;20.75;;;19.02;;
23682;SDS011;24897;53.514;10.482;2023-09-08T11:44:00;21.27;;;19.20;;
23682;SDS011;24897;53.514;10.482;2023-09-08T11:46:44;21.50;;;19.70;;
23682;SDS011;24897;53.514;10.482;2023-09-08T11:49:34;21.52;;;19.50;;
23682;SDS011;24897;53.514;10.482;2023-09-08T11:52:23;20.90;;;19.30;;
23682;SDS011;24897;53.514;10.482;2023-09-08T11:55:08;20.60;;;18.88;;
23682;SDS011;24897;53.514;10.482;2023-09-08T11:57:53;19.80;;;18.30;;
23682;SDS011;24897;53.514;10.482;2023-09-08T12:00:40;20.13;;;18.45;;
23682;SDS011;24897;53.514;10.482;2023-09-08T12:03:24;20.70;;;19.05;;
23682;SDS011;24897;53.514;10.482;2023-09-08T12:06:08;20.92;;;19.05;;
23682;SDS011;24897;53.514;10.482;2023-09-08T12:08:56;20.42;;;18.73;;
23682;SDS011;24897;53.514;10.482;2023-09-08T12:11:46;20.38;;;18.77;;
23682;SDS011;24897;53.514;10.482;2023-09-08T12:14:39;20.13;;;18.35;;
23682;SDS011;24897;53.514;10.482;2023-09-08T12:17:27;21.02;;;19.33;;
23682;SDS011;24897;53.514;10.482;2023-09-08T12:20:13;21.05;;;19.13;;
23682;SDS011;24897;53.514;10.482;2023-09-08T12:23:00;20.85;;;19.20;;
23682;SDS011;24897;53.514;10.482;2023-09-08T12:25:49;22.67;;;20.88;;
23682;SDS011;24897;53.514;10.482;2023-09-08T12:28:35;23.25;;;21.45;;
23682;SDS011;24897;53.514;10.482;2023-09-08T12:31:19;23.02;;;21.23;;
23682;SDS011;24897;53.514;10.482;2023-09-08T12:34:04;22.30;;;20.50;;
23682;SDS011;24897;53.514;10.482;2023-09-08T12:36:48;22.40;;;20.70;;
23682;SDS011;24897;53.514;10.482;2023-09-08T12:39:32;23.25;;;21.23;;
23682;SDS011;24897;53.514;10.482;2023-09-08T12:42:17;22.70;;;20.73;;
23682;SDS011;24897;53.514;10.482;2023-09-08T12:45:02;22.90;;;21.00;;
23682;SDS011;24897;53.514;10.482;2023-09-08T12:47:47;22.67;;;20.98;;
23682;SDS011;24897;53.514;10.482;2023-09-08T12:50:31;21.88;;;20.17;;
23682;SDS011;24897;53.514;10.482;2023-09-08T12:53:15;21.98;;;20.10;;
23682;SDS011;24897;53.514;10.482;2023-09-08T12:56:01;22.58;;;20.67;;
23682;SDS011;24897;53.514;10.482;2023-09-08T12:58:45;23.67;;;21.35;;
23682;SDS011;24897;53.514;10.482;2023-09-08T13:01:29;22.70;;;20.65;;
23682;SDS011;24897;53.514;10.482;2023-09-08T13:04:13;22.40;;;20.50;;
23682;SDS011;24897;53.514;10.482;2023-09-08T13:06:57;22.08;;;20.42;;
23682;SDS011;24897;53.514;10.482;2023-09-08T13:09:42;22.83;;;20.92;;
23682;SDS011;24897;53.514;10.482;2023-09-08T13:12:26;21.63;;;19.92;;
23682;SDS011;24897;53.514;10.482;2023-09-08T13:15:10;23.13;;;21.15;;
23682;SDS011;24897;53.514;10.482;2023-09-08T13:17:54;21.80;;;20.17;;
23682;SDS011;24897;53.514;10.482;2023-09-08T13:20:39;22.08;;;20.20;;
23682;SDS011;24897;53.514;10.482;2023-09-08T13:23:23;22.58;;;20.80;;
23682;SDS011;24897;53.514;10.482;2023-09-08T13:26:07;22.65;;;20.85;;
23682;SDS011;24897;53.514;10.482;2023-09-08T13:28:51;22.38;;;20.58;;
23682;SDS011;24897;53.514;10.482;2023-09-08T13:31:36;22.83;;;20.88;;
23682;SDS011;24897;53.514;10.482;2023-09-08T13:34:22;22.52;;;20.70;;
23682;SDS011;24897;53.514;10.482;2023-09-08T13:37:07;22.25;;;20.55;;
23682;SDS011;24897;53.514;10.482;2023-09-08T13:39:51;22.23;;;20.52;;
23682;SDS011;24897;53.514;10.482;2023-09-08T13:42:36;22.13;;;20.35;;
23682;SDS011;24897;53.514;10.482;2023-09-08T13:45:20;22.73;;;20.80;;
23682;SDS011;24897;53.514;10.482;2023-09-08T13:48:04;22.17;;;20.38;;
23682;SDS011;24897;53.514;10.482;2023-09-08T13:50:50;22.10;;;20.40;;
23682;SDS011;24897;53.514;10.482;2023-09-08T13:53:34;22.08;;;20.23;;
23682;SDS011;24897;53.514;10.482;2023-09-08T13:56:18;21.60;;;19.85;;
23682;SDS011;24897;53.514;10.482;2023-09-08T13:59:02;21.85;;;20.05;;
23682;SDS011;24897;53.514;10.482;2023-09-08T14:01:46;22.08;;;20.40;;
23682;SDS011;24897;53.514;10.482;2023-09-08T14:04:30;22.17;;;20.38;;
23682;SDS011;24897;53.514;10.482;2023-09-08T14:07:15;22.55;;;20.85;;
23682;SDS011;24897;53.514;10.482;2023-09-08T14:09:58;22.80;;;20.95;;
23682;SDS011;24897;53.514;10.482;2023-09-08T14:12:45;22.02;;;20.33;;
23682;SDS011;24897;53.514;10.482;2023-09-08T14:15:29;21.80;;;20.10;;
23682;SDS011;24897;53.514;10.482;2023-09-08T14:18:13;22.35;;;20.58;;
23682;SDS011;24897;53.514;10.482;2023-09-08T14:20:58;22.10;;;20.23;;
23682;SDS011;24897;53.514;10.482;2023-09-08T14:23:42;22.30;;;20.60;;
23682;SDS011;24897;53.514;10.482;2023-09-08T14:26:26;21.75;;;20.25;;
23682;SDS011;24897;53.514;10.482;2023-09-08T14:29:10;22.23;;;20.30;;
23682;SDS011;24897;53.514;10.482;2023-09-08T14:31:54;19.65;;;18.10;;
23682;SDS011;24897;53.514;10.482;2023-09-08T14:34:38;20.00;;;18.50;;
23682;SDS011;24897;53.514;10.482;2023-09-08T14:37:22;19.40;;;17.95;;
23682;SDS011;24897;53.514;10.482;2023-09-08T14:40:06;21.35;;;19.70;;
23682;SDS011;24897;53.514;10.482;2023-09-08T14:42:51;21.80;;;20.10;;
23682;SDS011;24897;53.514;10.482;2023-09-08T14:45:35;21.35;;;19.65;;
23682;SDS011;24897;53.514;10.482;2023-09-08T14:48:19;20.70;;;19.02;;
23682;SDS011;24897;53.514;10.482;2023-09-08T14:51:03;20.70;;;18.98;;
23682;SDS011;24897;53.514;10.482;2023-09-08T14:53:47;21.90;;;20.10;;
23682;SDS011;24897;53.514;10.482;2023-09-08T14:56:31;21.10;;;19.60;;
23682;SDS011;24897;53.514;10.482;2023-09-08T14:59:16;21.58;;;19.92;;
23682;SDS011;24897;53.514;10.482;2023-09-08T15:02:00;21.13;;;19.52;;
23682;SDS011;24897;53.514;10.482;2023-09-08T15:04:44;21.05;;;19.45;;
23682;SDS011;24897;53.514;10.482;2023-09-08T15:07:28;20.92;;;19.35;;
23682;SDS011;24897;53.514;10.482;2023-09-08T15:10:12;21.77;;;20.15;;
23682;SDS011;24897;53.514;10.482;2023-09-08T15:12:56;21.98;;;20.27;;
23682;SDS011;24897;53.514;10.482;2023-09-08T15:15:40;21.20;;;19.60;;
23682;SDS011;24897;53.514;10.482;2023-09-08T15:18:24;19.45;;;17.95;;
23682;SDS011;24897;53.514;10.482;2023-09-08T15:21:10;19.25;;;17.75;;
23682;SDS011;24897;53.514;10.482;2023-09-08T15:23:54;19.25;;;17.75;;
23682;SDS011;24897;53.514;10.482;2023-09-08T15:26:38;19.00;;;17.13;;
23682;SDS011;24897;53.514;10.482;2023-09-08T15:29:23;19.33;;;17.80;;
23682;SDS011;24897;53.514;10.482;2023-09-08T15:32:07;18.58;;;17.17;;
23682;SDS011;24897;53.514;10.482;2023-09-08T15:34:52;19.52;;;17.73;;
23682;SDS011;24897;53.514;10.482;2023-09-08T15:37:36;18.75;;;17.35;;
23682;SDS011;24897;53.514;10.482;2023-09-08T15:40:20;18.92;;;17.30;;
23682;SDS011;24897;53.514;10.482;2023-09-08T15:43:04;19.35;;;17.50;;
23682;SDS011;24897;53.514;10.482;2023-09-08T15:45:48;18.70;;;17.25;;
23682;SDS011;24897;53.514;10.482;2023-09-08T15:48:36;18.63;;;17.23;;
23682;SDS011;24897;53.514;10.482;2023-09-08T15:51:21;19.33;;;17.83;;
23682;SDS011;24897;53.514;10.482;2023-09-08T15:54:05;18.48;;;16.98;;
23682;SDS011;24897;53.514;10.482;2023-09-08T15:56:49;18.70;;;17.20;;
23682;SDS011;24897;53.514;10.482;2023-09-08T15:59:33;18.42;;;17.02;;
23682;SDS011;24897;53.514;10.482;2023-09-08T16:02:18;18.92;;;17.42;;
23682;SDS011;24897;53.514;10.482;2023-09-08T16:05:02;19.20;;;17.70;;